sensor_id;sensor_type;location;lat;lon;timestamp;pressure;altitude;pressure_sealevel;temperature;humidity
16355;BME280;8287;51.644;8.494;2023-02-10T00:01:44;102245.97;;;5.59;78.92
16355;BME280;8287;51.644;8.494;2023-02-10T00:04:12;102244.38;;;5.58;79.03
16355;BME280;8287;51.644;8.494;2023-02-10T00:06:39;102242.88;;;5.62;79.07
16355;BME280;8287;51.644;8.494;2023-02-10T00:09:06;102249.63;;;5.58;79.03
16355;BME280;8287;51.644;8.494;2023-02-10T00:11:33;102243.56;;;5.57;78.95
16355;BME280;8287;51.644;8.494;2023-02-10T00:14:19;102255.88;;;5.57;79.10
16355;BME280;8287;51.644;8.494;2023-02-10T00:16:49;102248.16;;;5.62;79.02
16355;BME280;8287;51.644;8.494;2023-02-10T00:19:16;102252.59;;;5.61;79.32
16355;BME280;8287;51.644;8.494;2023-02-10T00:21:42;102238.66;;;5.61;79.62
16355;BME280;8287;51.644;8.494;2023-02-10T00:24:09;102242.44;;;5.65;79.17
16355;BME280;8287;51.644;8.494;2023-02-10T00:26:36;102245.06;;;5.65;79.21
16355;BME280;8287;51.644;8.494;2023-02-10T00:29:03;102235.81;;;5.62;79.56
16355;BME280;8287;51.644;8.494;2023-02-10T00:31:29;102246.66;;;5.66;79.56
16355;BME280;8287;51.644;8.494;2023-02-10T00:33:57;102245.41;;;5.68;79.84
16355;BME280;8287;51.644;8.494;2023-02-10T00:36:24;102247.25;;;5.68;79.99
16355;BME280;8287;51.644;8.494;2023-02-10T00:38:51;102247.25;;;5.68;79.96
16355;BME280;8287;51.644;8.494;2023-02-10T00:41:20;102240.50;;;5.72;80.18
16355;BME280;8287;51.644;8.494;2023-02-10T00:43:47;102234.31;;;5.66;80.19
16355;BME280;8287;51.644;8.494;2023-02-10T00:46:16;102236.84;;;5.73;80.18
16355;BME280;8287;51.644;8.494;2023-02-10T00:48:43;102247.59;;;5.71;80.55
16355;BME280;8287;51.644;8.494;2023-02-10T00:51:11;102252.75;;;5.78;80.25
16355;BME280;8287;51.644;8.494;2023-02-10T00:53:39;102244.06;;;5.77;79.88
16355;BME280;8287;51.644;8.494;2023-02-10T00:56:06;102251.03;;;5.72;80.29
16355;BME280;8287;51.644;8.494;2023-02-10T00:58:33;102255.84;;;5.75;79.96
16355;BME280;8287;51.644;8.494;2023-02-10T01:01:00;102253.53;;;5.67;80.76
16355;BME280;8287;51.644;8.494;2023-02-10T01:03:26;102258.13;;;5.71;80.89
16355;BME280;8287;51.644;8.494;2023-02-10T01:05:53;102265.19;;;5.71;80.58
16355;BME280;8287;51.644;8.494;2023-02-10T01:08:21;102263.03;;;5.68;80.49
16355;BME280;8287;51.644;8.494;2023-02-10T01:10:48;102268.75;;;5.76;80.02
16355;BME280;8287;51.644;8.494;2023-02-10T01:13:16;102270.47;;;5.71;80.44
16355;BME280;8287;51.644;8.494;2023-02-10T01:15:43;102271.19;;;5.78;80.06
16355;BME280;8287;51.644;8.494;2023-02-10T01:18:10;102273.22;;;5.76;80.24
16355;BME280;8287;51.644;8.494;2023-02-10T01:20:38;102279.53;;;5.75;80.26
16355;BME280;8287;51.644;8.494;2023-02-10T01:23:06;102280.22;;;5.82;80.32
16355;BME280;8287;51.644;8.494;2023-02-10T01:25:34;102275.06;;;5.75;80.51
16355;BME280;8287;51.644;8.494;2023-02-10T01:28:01;102281.06;;;5.82;80.49
16355;BME280;8287;51.644;8.494;2023-02-10T01:30:28;102272.25;;;5.88;80.07
16355;BME280;8287;51.644;8.494;2023-02-10T01:32:55;102279.34;;;5.88;79.73
16355;BME280;8287;51.644;8.494;2023-02-10T01:35:22;102286.66;;;5.86;80.01
16355;BME280;8287;51.644;8.494;2023-02-10T01:37:49;102282.19;;;5.86;79.54
16355;BME280;8287;51.644;8.494;2023-02-10T01:40:16;102280.38;;;5.87;79.78
16355;BME280;8287;51.644;8.494;2023-02-10T01:42:44;102285.63;;;5.87;79.92
16355;BME280;8287;51.644;8.494;2023-02-10T01:45:14;102284.81;;;5.86;79.98
16355;BME280;8287;51.644;8.494;2023-02-10T01:47:42;102284.97;;;5.91;79.72
16355;BME280;8287;51.644;8.494;2023-02-10T01:50:10;102281.75;;;5.89;79.88
16355;BME280;8287;51.644;8.494;2023-02-10T01:52:38;102278.88;;;5.91;80.12
16355;BME280;8287;51.644;8.494;2023-02-10T01:55:06;102277.16;;;5.85;80.65
16355;BME280;8287;51.644;8.494;2023-02-10T01:57:35;102274.66;;;5.90;80.36
16355;BME280;8287;51.644;8.494;2023-02-10T02:00:05;102276.66;;;5.76;80.22
16355;BME280;8287;51.644;8.494;2023-02-10T02:02:32;102271.44;;;5.88;80.32
16355;BME280;8287;51.644;8.494;2023-02-10T02:05:03;102275.00;;;5.93;79.83
16355;BME280;8287;51.644;8.494;2023-02-10T02:07:32;102280.25;;;5.93;79.77
16355;BME280;8287;51.644;8.494;2023-02-10T02:10:02;102278.44;;;5.94;80.09
16355;BME280;8287;51.644;8.494;2023-02-10T02:12:38;102273.41;;;5.92;79.68
16355;BME280;8287;51.644;8.494;2023-02-10T02:15:14;102286.34;;;5.94;80.09
16355;BME280;8287;51.644;8.494;2023-02-10T02:17:48;102281.28;;;5.92;79.70
16355;BME280;8287;51.644;8.494;2023-02-10T02:26:24;102296.50;;;5.90;80.02
16355;BME280;8287;51.644;8.494;2023-02-10T02:29:12;102300.28;;;5.83;80.63
16355;BME280;8287;51.644;8.494;2023-02-10T02:31:51;102296.00;;;5.82;80.54
16355;BME280;8287;51.644;8.494;2023-02-10T02:34:23;102303.03;;;5.88;80.64
16355;BME280;8287;51.644;8.494;2023-02-10T02:36:58;102299.59;;;5.87;80.36
16355;BME280;8287;51.644;8.494;2023-02-10T02:39:26;102308.50;;;5.86;80.82
16355;BME280;8287;51.644;8.494;2023-02-10T02:42:06;102300.50;;;5.81;80.71
16355;BME280;8287;51.644;8.494;2023-02-10T02:44:39;102298.66;;;5.82;80.66
16355;BME280;8287;51.644;8.494;2023-02-10T02:47:12;102304.72;;;5.82;81.24
16355;BME280;8287;51.644;8.494;2023-02-10T02:49:45;102305.19;;;5.79;81.12
16355;BME280;8287;51.644;8.494;2023-02-10T02:52:18;102309.16;;;5.82;80.97
16355;BME280;8287;51.644;8.494;2023-02-10T02:54:54;102311.00;;;5.81;80.90
16355;BME280;8287;51.644;8.494;2023-02-10T02:57:29;102312.69;;;5.76;80.91
16355;BME280;8287;51.644;8.494;2023-02-10T03:00:04;102308.88;;;5.72;80.64
16355;BME280;8287;51.644;8.494;2023-02-10T03:02:34;102306.91;;;5.67;81.03
16355;BME280;8287;51.644;8.494;2023-02-10T03:05:02;102300.56;;;5.75;80.69
16355;BME280;8287;51.644;8.494;2023-02-10T03:07:28;102303.63;;;5.72;80.99
16355;BME280;8287;51.644;8.494;2023-02-10T03:09:57;102311.09;;;5.75;80.45
16355;BME280;8287;51.644;8.494;2023-02-10T03:12:23;102305.22;;;5.73;80.54
16355;BME280;8287;51.644;8.494;2023-02-10T03:14:50;102296.03;;;5.64;80.40
16355;BME280;8287;51.644;8.494;2023-02-10T03:17:17;102299.44;;;5.53;81.23
16355;BME280;8287;51.644;8.494;2023-02-10T03:19:45;102301.72;;;5.49;81.30
16355;BME280;8287;51.644;8.494;2023-02-10T03:22:11;102297.25;;;5.50;80.97
16355;BME280;8287;51.644;8.494;2023-02-10T03:24:38;102298.97;;;5.56;80.69
16355;BME280;8287;51.644;8.494;2023-02-10T03:27:05;102297.38;;;5.55;80.55
16355;BME280;8287;51.644;8.494;2023-02-10T03:29:31;102293.91;;;5.43;81.28
16355;BME280;8287;51.644;8.494;2023-02-10T03:31:58;102292.31;;;5.42;81.03
16355;BME280;8287;51.644;8.494;2023-02-10T03:34:27;102296.75;;;5.41;81.00
16355;BME280;8287;51.644;8.494;2023-02-10T03:36:55;102286.25;;;5.41;80.74
16355;BME280;8287;51.644;8.494;2023-02-10T03:39:21;102288.31;;;5.39;80.27
16355;BME280;8287;51.644;8.494;2023-02-10T03:41:48;102292.38;;;5.35;81.07
16355;BME280;8287;51.644;8.494;2023-02-10T03:44:14;102289.13;;;5.22;81.26
16355;BME280;8287;51.644;8.494;2023-02-10T03:46:41;102274.81;;;5.18;81.56
16355;BME280;8287;51.644;8.494;2023-02-10T03:49:07;102277.47;;;5.18;81.60
16355;BME280;8287;51.644;8.494;2023-02-10T03:51:34;102277.31;;;5.13;80.87
16355;BME280;8287;51.644;8.494;2023-02-10T03:54:03;102277.88;;;5.15;80.97
16355;BME280;8287;51.644;8.494;2023-02-10T03:56:29;102282.19;;;5.09;81.29
16355;BME280;8287;51.644;8.494;2023-02-10T03:58:56;102283.88;;;5.04;81.43
16355;BME280;8287;51.644;8.494;2023-02-10T04:01:22;102284.31;;;5.01;81.61
16355;BME280;8287;51.644;8.494;2023-02-10T04:03:49;102294.19;;;4.87;82.17
16355;BME280;8287;51.644;8.494;2023-02-10T04:06:16;102297.38;;;4.89;82.11
16355;BME280;8287;51.644;8.494;2023-02-10T04:08:42;102306.03;;;4.90;82.44
16355;BME280;8287;51.644;8.494;2023-02-10T04:11:10;102311.53;;;4.88;82.61
16355;BME280;8287;51.644;8.494;2023-02-10T04:13:38;102310.16;;;4.86;82.63
16355;BME280;8287;51.644;8.494;2023-02-10T04:16:07;102309.13;;;4.87;83.12
16355;BME280;8287;51.644;8.494;2023-02-10T04:18:35;102294.59;;;4.84;82.61
16355;BME280;8287;51.644;8.494;2023-02-10T04:21:04;102284.09;;;4.84;82.56
16355;BME280;8287;51.644;8.494;2023-02-10T04:23:30;102286.31;;;4.87;82.36
16355;BME280;8287;51.644;8.494;2023-02-10T04:25:58;102294.59;;;4.84;82.50
16355;BME280;8287;51.644;8.494;2023-02-10T04:28:26;102293.50;;;4.74;82.50
16355;BME280;8287;51.644;8.494;2023-02-10T04:30:53;102301.53;;;4.79;82.29
16355;BME280;8287;51.644;8.494;2023-02-10T04:33:19;102292.53;;;4.68;81.84
16355;BME280;8287;51.644;8.494;2023-02-10T04:35:47;102297.78;;;4.68;82.48
16355;BME280;8287;51.644;8.494;2023-02-10T04:38:14;102301.06;;;4.64;82.53
16355;BME280;8287;51.644;8.494;2023-02-10T04:40:41;102290.44;;;4.59;83.07
16355;BME280;8287;51.644;8.494;2023-02-10T04:43:08;102302.53;;;4.60;83.12
16355;BME280;8287;51.644;8.494;2023-02-10T04:45:36;102302.97;;;4.57;83.15
16355;BME280;8287;51.644;8.494;2023-02-10T04:48:03;102303.75;;;4.57;82.92
16355;BME280;8287;51.644;8.494;2023-02-10T04:50:30;102306.19;;;4.59;82.70
16355;BME280;8287;51.644;8.494;2023-02-10T04:52:56;102291.28;;;4.53;83.19
16355;BME280;8287;51.644;8.494;2023-02-10T04:55:25;102293.09;;;4.52;83.08
16355;BME280;8287;51.644;8.494;2023-02-10T04:57:52;102292.88;;;4.54;83.79
16355;BME280;8287;51.644;8.494;2023-02-10T05:00:19;102292.09;;;4.53;84.17
16355;BME280;8287;51.644;8.494;2023-02-10T05:02:47;102298.31;;;4.59;83.73
16355;BME280;8287;51.644;8.494;2023-02-10T05:05:13;102298.13;;;4.54;83.41
16355;BME280;8287;51.644;8.494;2023-02-10T05:07:40;102299.31;;;4.58;83.57
16355;BME280;8287;51.644;8.494;2023-02-10T05:10:07;102304.56;;;4.58;84.37
16355;BME280;8287;51.644;8.494;2023-02-10T05:12:34;102301.13;;;4.57;84.79
16355;BME280;8287;51.644;8.494;2023-02-10T05:15:00;102302.38;;;4.55;84.21
16355;BME280;8287;51.644;8.494;2023-02-10T05:17:27;102307.41;;;4.56;84.64
16355;BME280;8287;51.644;8.494;2023-02-10T05:19:56;102315.50;;;4.55;83.94
16355;BME280;8287;51.644;8.494;2023-02-10T05:22:24;102303.81;;;4.51;84.11
16355;BME280;8287;51.644;8.494;2023-02-10T05:24:54;102300.75;;;4.54;83.70
16355;BME280;8287;51.644;8.494;2023-02-10T05:27:22;102308.25;;;4.50;84.19
16355;BME280;8287;51.644;8.494;2023-02-10T05:29:48;102306.22;;;4.52;83.69
16355;BME280;8287;51.644;8.494;2023-02-10T05:32:15;102305.53;;;4.39;85.00
16355;BME280;8287;51.644;8.494;2023-02-10T05:34:41;102305.50;;;4.45;84.89
16355;BME280;8287;51.644;8.494;2023-02-10T05:37:09;102310.31;;;4.48;84.33
16355;BME280;8287;51.644;8.494;2023-02-10T05:39:36;102319.84;;;4.43;84.32
16355;BME280;8287;51.644;8.494;2023-02-10T05:42:03;102318.44;;;4.40;84.41
16355;BME280;8287;51.644;8.494;2023-02-10T05:44:29;102310.78;;;4.39;84.60
16355;BME280;8287;51.644;8.494;2023-02-10T05:46:57;102315.25;;;4.38;84.43
16355;BME280;8287;51.644;8.494;2023-02-10T05:49:24;102320.88;;;4.42;84.19
16355;BME280;8287;51.644;8.494;2023-02-10T05:51:51;102320.97;;;4.29;84.59
16355;BME280;8287;51.644;8.494;2023-02-10T05:54:19;102326.59;;;4.32;84.98
16355;BME280;8287;51.644;8.494;2023-02-10T05:56:46;102327.66;;;4.25;84.83
16355;BME280;8287;51.644;8.494;2023-02-10T05:59:14;102334.94;;;4.23;85.44
16355;BME280;8287;51.644;8.494;2023-02-10T06:01:41;102339.97;;;4.24;85.07
16355;BME280;8287;51.644;8.494;2023-02-10T06:04:08;102342.78;;;4.23;85.90
16355;BME280;8287;51.644;8.494;2023-02-10T06:06:35;102348.41;;;4.26;84.96
16355;BME280;8287;51.644;8.494;2023-02-10T06:09:02;102351.88;;;4.27;84.51
16355;BME280;8287;51.644;8.494;2023-02-10T06:11:30;102361.78;;;4.25;84.81
16355;BME280;8287;51.644;8.494;2023-02-10T06:13:57;102353.28;;;4.23;84.37
16355;BME280;8287;51.644;8.494;2023-02-10T06:16:23;102357.00;;;4.15;84.91
16355;BME280;8287;51.644;8.494;2023-02-10T06:18:50;102358.97;;;4.20;84.64
16355;BME280;8287;51.644;8.494;2023-02-10T06:21:16;102371.50;;;4.18;84.79
16355;BME280;8287;51.644;8.494;2023-02-10T06:23:44;102371.94;;;4.15;84.68
16355;BME280;8287;51.644;8.494;2023-02-10T06:26:11;102370.47;;;4.19;84.40
16355;BME280;8287;51.644;8.494;2023-02-10T06:28:39;102368.31;;;4.09;84.87
16355;BME280;8287;51.644;8.494;2023-02-10T06:31:05;102369.13;;;4.10;85.08
16355;BME280;8287;51.644;8.494;2023-02-10T06:33:34;102372.19;;;4.07;84.83
16355;BME280;8287;51.644;8.494;2023-02-10T06:36:01;102378.03;;;4.09;85.04
16355;BME280;8287;51.644;8.494;2023-02-10T06:38:30;102384.31;;;4.01;84.63
16355;BME280;8287;51.644;8.494;2023-02-10T06:40:57;102388.81;;;3.88;85.74
16355;BME280;8287;51.644;8.494;2023-02-10T06:43:23;102403.69;;;4.00;85.92
16355;BME280;8287;51.644;8.494;2023-02-10T06:45:51;102402.47;;;4.03;85.40
16355;BME280;8287;51.644;8.494;2023-02-10T06:48:18;102404.06;;;4.04;84.90
16355;BME280;8287;51.644;8.494;2023-02-10T06:50:44;102399.84;;;4.03;84.44
16355;BME280;8287;51.644;8.494;2023-02-10T06:53:11;102406.53;;;3.99;84.52
16355;BME280;8287;51.644;8.494;2023-02-10T06:55:38;102413.97;;;4.02;84.22
16355;BME280;8287;51.644;8.494;2023-02-10T06:58:04;102412.56;;;3.99;84.19
16355;BME280;8287;51.644;8.494;2023-02-10T07:00:31;102404.75;;;3.93;85.13
16355;BME280;8287;51.644;8.494;2023-02-10T07:02:59;102409.75;;;4.01;84.70
16355;BME280;8287;51.644;8.494;2023-02-10T07:05:26;102413.13;;;4.08;84.08
16355;BME280;8287;51.644;8.494;2023-02-10T07:07:53;102421.22;;;4.06;84.35
16355;BME280;8287;51.644;8.494;2023-02-10T07:10:20;102420.78;;;4.09;84.31
16355;BME280;8287;51.644;8.494;2023-02-10T07:12:46;102417.13;;;4.10;84.19
16355;BME280;8287;51.644;8.494;2023-02-10T07:15:13;102428.44;;;4.11;84.24
16355;BME280;8287;51.644;8.494;2023-02-10T07:17:41;102429.47;;;4.10;84.86
16355;BME280;8287;51.644;8.494;2023-02-10T07:20:10;102419.16;;;4.08;84.79
16355;BME280;8287;51.644;8.494;2023-02-10T07:22:37;102420.13;;;4.20;84.32
16355;BME280;8287;51.644;8.494;2023-02-10T07:25:04;102421.59;;;4.10;84.53
16355;BME280;8287;51.644;8.494;2023-02-10T07:27:31;102415.66;;;4.21;84.17
16355;BME280;8287;51.644;8.494;2023-02-10T07:29:57;102436.84;;;4.26;84.54
16355;BME280;8287;51.644;8.494;2023-02-10T07:32:24;102435.81;;;4.27;84.21
16355;BME280;8287;51.644;8.494;2023-02-10T07:34:51;102431.94;;;4.36;84.06
16355;BME280;8287;51.644;8.494;2023-02-10T07:37:19;102437.94;;;4.43;83.75
16355;BME280;8287;51.644;8.494;2023-02-10T07:39:45;102436.34;;;4.42;83.39
16355;BME280;8287;51.644;8.494;2023-02-10T07:42:12;102426.63;;;4.42;83.60
16355;BME280;8287;51.644;8.494;2023-02-10T07:44:38;102438.09;;;4.48;83.57
16355;BME280;8287;51.644;8.494;2023-02-10T07:47:05;102429.44;;;4.47;83.53
16355;BME280;8287;51.644;8.494;2023-02-10T07:49:32;102431.84;;;4.49;84.07
16355;BME280;8287;51.644;8.494;2023-02-10T07:51:58;102422.53;;;4.53;84.19
16355;BME280;8287;51.644;8.494;2023-02-10T07:54:26;102426.50;;;4.62;83.58
16355;BME280;8287;51.644;8.494;2023-02-10T07:56:53;102430.91;;;4.68;83.32
16355;BME280;8287;51.644;8.494;2023-02-10T07:59:19;102419.56;;;4.74;82.97
16355;BME280;8287;51.644;8.494;2023-02-10T08:01:46;102423.34;;;4.78;82.93
16355;BME280;8287;51.644;8.494;2023-02-10T08:04:13;102430.00;;;4.80;83.47
16355;BME280;8287;51.644;8.494;2023-02-10T08:06:39;102421.28;;;4.80;82.83
16355;BME280;8287;51.644;8.494;2023-02-10T08:09:06;102427.03;;;4.95;82.74
16355;BME280;8287;51.644;8.494;2023-02-10T08:11:35;102422.78;;;4.94;83.11
16355;BME280;8287;51.644;8.494;2023-02-10T08:14:02;102429.31;;;5.09;82.75
16355;BME280;8287;51.644;8.494;2023-02-10T08:16:30;102421.66;;;5.08;82.96
16355;BME280;8287;51.644;8.494;2023-02-10T08:18:56;102420.78;;;5.14;83.19
16355;BME280;8287;51.644;8.494;2023-02-10T08:21:23;102436.72;;;5.37;82.83
16355;BME280;8287;51.644;8.494;2023-02-10T08:23:51;102423.81;;;5.53;81.74
16355;BME280;8287;51.644;8.494;2023-02-10T08:26:20;102429.84;;;5.72;81.14
16355;BME280;8287;51.644;8.494;2023-02-10T08:28:49;102437.47;;;5.80;80.71
16355;BME280;8287;51.644;8.494;2023-02-10T08:31:15;102432.50;;;5.90;80.28
16355;BME280;8287;51.644;8.494;2023-02-10T08:33:42;102423.63;;;6.02;80.17
16355;BME280;8287;51.644;8.494;2023-02-10T08:36:12;102432.59;;;6.13;79.32
16355;BME280;8287;51.644;8.494;2023-02-10T08:38:39;102439.34;;;6.09;79.65
16355;BME280;8287;51.644;8.494;2023-02-10T08:41:06;102432.44;;;6.08;78.85
16355;BME280;8287;51.644;8.494;2023-02-10T08:43:33;102430.31;;;6.16;78.41
16355;BME280;8287;51.644;8.494;2023-02-10T08:46:02;102443.84;;;6.20;78.00
16355;BME280;8287;51.644;8.494;2023-02-10T08:48:29;102441.44;;;6.18;77.75
16355;BME280;8287;51.644;8.494;2023-02-10T08:50:56;102447.00;;;6.10;77.64
16355;BME280;8287;51.644;8.494;2023-02-10T08:53:23;102441.16;;;6.08;77.87
16355;BME280;8287;51.644;8.494;2023-02-10T08:55:55;102448.38;;;6.13;77.53
16355;BME280;8287;51.644;8.494;2023-02-10T08:58:21;102453.44;;;6.14;77.97
16355;BME280;8287;51.644;8.494;2023-02-10T09:00:48;102446.94;;;6.17;77.54
16355;BME280;8287;51.644;8.494;2023-02-10T09:03:16;102453.78;;;6.18;76.65
16355;BME280;8287;51.644;8.494;2023-02-10T09:05:43;102452.03;;;6.12;76.53
16355;BME280;8287;51.644;8.494;2023-02-10T09:08:11;102452.41;;;6.15;76.69
16355;BME280;8287;51.644;8.494;2023-02-10T09:10:38;102459.13;;;6.11;77.15
16355;BME280;8287;51.644;8.494;2023-02-10T09:13:05;102460.50;;;6.14;77.10
16355;BME280;8287;51.644;8.494;2023-02-10T09:15:34;102451.06;;;6.24;76.62
16355;BME280;8287;51.644;8.494;2023-02-10T09:18:02;102464.31;;;6.18;76.44
16355;BME280;8287;51.644;8.494;2023-02-10T09:20:30;102459.78;;;6.36;76.47
16355;BME280;8287;51.644;8.494;2023-02-10T09:22:57;102455.28;;;6.54;75.88
16355;BME280;8287;51.644;8.494;2023-02-10T09:25:23;102454.38;;;6.60;75.59
16355;BME280;8287;51.644;8.494;2023-02-10T09:27:51;102464.94;;;6.72;74.81
16355;BME280;8287;51.644;8.494;2023-02-10T09:30:18;102456.94;;;6.90;74.86
16355;BME280;8287;51.644;8.494;2023-02-10T09:32:45;102460.38;;;6.90;74.18
16355;BME280;8287;51.644;8.494;2023-02-10T09:35:11;102464.84;;;6.90;73.97
16355;BME280;8287;51.644;8.494;2023-02-10T09:37:39;102459.53;;;6.67;73.58
16355;BME280;8287;51.644;8.494;2023-02-10T09:40:07;102463.59;;;6.81;73.40
16355;BME280;8287;51.644;8.494;2023-02-10T09:42:45;102468.41;;;6.84;73.80
16355;BME280;8287;51.644;8.494;2023-02-10T09:45:19;102464.28;;;6.88;72.26
16355;BME280;8287;51.644;8.494;2023-02-10T09:47:50;102467.50;;;7.01;72.67
16355;BME280;8287;51.644;8.494;2023-02-10T09:50:36;102466.84;;;7.17;72.43
16355;BME280;8287;51.644;8.494;2023-02-10T09:53:12;102469.56;;;7.34;72.49
16355;BME280;8287;51.644;8.494;2023-02-10T09:55:41;102470.13;;;7.24;71.53
16355;BME280;8287;51.644;8.494;2023-02-10T09:58:16;102460.19;;;7.15;71.45
16355;BME280;8287;51.644;8.494;2023-02-10T10:00:45;102455.69;;;7.38;71.43
16355;BME280;8287;51.644;8.494;2023-02-10T10:03:16;102462.00;;;7.37;70.33
16355;BME280;8287;51.644;8.494;2023-02-10T10:05:49;102460.41;;;7.36;70.48
16355;BME280;8287;51.644;8.494;2023-02-10T10:08:26;102458.09;;;7.51;70.11
16355;BME280;8287;51.644;8.494;2023-02-10T10:10:56;102460.13;;;7.49;69.26
16355;BME280;8287;51.644;8.494;2023-02-10T10:13:28;102461.03;;;7.66;68.98
16355;BME280;8287;51.644;8.494;2023-02-10T10:16:13;102461.00;;;7.78;68.87
16355;BME280;8287;51.644;8.494;2023-02-10T10:18:51;102475.91;;;7.84;68.62
16355;BME280;8287;51.644;8.494;2023-02-10T10:21:26;102473.06;;;7.85;67.99
16355;BME280;8287;51.644;8.494;2023-02-10T10:24:04;102481.53;;;7.87;67.69
16355;BME280;8287;51.644;8.494;2023-02-10T10:26:41;102475.22;;;7.88;67.84
16355;BME280;8287;51.644;8.494;2023-02-10T10:29:20;102476.63;;;8.07;66.78
16355;BME280;8287;51.644;8.494;2023-02-10T10:31:56;102474.88;;;8.13;67.50
16355;BME280;8287;51.644;8.494;2023-02-10T10:34:27;102476.84;;;8.17;66.90
16355;BME280;8287;51.644;8.494;2023-02-10T10:36:56;102485.38;;;8.08;66.07
16355;BME280;8287;51.644;8.494;2023-02-10T10:39:32;102486.88;;;8.04;66.78
16355;BME280;8287;51.644;8.494;2023-02-10T10:42:07;102485.84;;;8.05;66.42
16355;BME280;8287;51.644;8.494;2023-02-10T10:44:38;102483.44;;;8.03;66.30
16355;BME280;8287;51.644;8.494;2023-02-10T10:47:13;102482.47;;;8.21;66.46
16355;BME280;8287;51.644;8.494;2023-02-10T10:49:41;102464.56;;;8.23;66.06
16355;BME280;8287;51.644;8.494;2023-02-10T10:52:23;102474.66;;;8.26;65.81
16355;BME280;8287;51.644;8.494;2023-02-10T10:54:54;102473.28;;;8.51;66.01
16355;BME280;8287;51.644;8.494;2023-02-10T10:57:21;102461.63;;;8.64;65.43
16355;BME280;8287;51.644;8.494;2023-02-10T10:59:51;102457.09;;;8.64;65.13
16355;BME280;8287;51.644;8.494;2023-02-10T11:02:21;102460.16;;;8.89;63.78
16355;BME280;8287;51.644;8.494;2023-02-10T11:04:59;102449.25;;;8.86;64.12
16355;BME280;8287;51.644;8.494;2023-02-10T11:07:26;102453.59;;;8.75;63.76
16355;BME280;8287;51.644;8.494;2023-02-10T11:09:56;102450.44;;;8.62;63.65
16355;BME280;8287;51.644;8.494;2023-02-10T11:12:28;102462.06;;;8.61;63.30
16355;BME280;8287;51.644;8.494;2023-02-10T11:14:56;102450.44;;;8.45;64.13
16355;BME280;8287;51.644;8.494;2023-02-10T11:17:26;102461.41;;;8.37;64.31
16355;BME280;8287;51.644;8.494;2023-02-10T11:19:57;102456.94;;;8.54;64.79
16355;BME280;8287;51.644;8.494;2023-02-10T11:22:25;102454.47;;;8.64;64.46
16355;BME280;8287;51.644;8.494;2023-02-10T11:24:53;102458.47;;;8.67;64.69
16355;BME280;8287;51.644;8.494;2023-02-10T11:27:23;102453.13;;;8.78;64.06
16355;BME280;8287;51.644;8.494;2023-02-10T11:29:51;102440.38;;;8.75;63.53
16355;BME280;8287;51.644;8.494;2023-02-10T11:32:21;102436.28;;;8.84;64.03
16355;BME280;8287;51.644;8.494;2023-02-10T11:34:50;102440.13;;;9.10;63.78
16355;BME280;8287;51.644;8.494;2023-02-10T11:37:23;102436.84;;;9.19;62.93
16355;BME280;8287;51.644;8.494;2023-02-10T11:39:50;102430.19;;;9.17;61.32
16355;BME280;8287;51.644;8.494;2023-02-10T11:42:22;102430.81;;;9.24;61.71
16355;BME280;8287;51.644;8.494;2023-02-10T11:44:56;102423.25;;;8.94;61.31
16355;BME280;8287;51.644;8.494;2023-02-10T11:47:23;102420.38;;;9.17;60.81
16355;BME280;8287;51.644;8.494;2023-02-10T11:49:50;102433.69;;;9.22;60.83
16355;BME280;8287;51.644;8.494;2023-02-10T11:52:18;102425.53;;;9.24;60.05
16355;BME280;8287;51.644;8.494;2023-02-10T11:54:46;102418.63;;;9.23;60.67
16355;BME280;8287;51.644;8.494;2023-02-10T11:57:25;102414.34;;;9.38;60.53
16355;BME280;8287;51.644;8.494;2023-02-10T12:00:16;102406.00;;;9.30;59.51
16355;BME280;8287;51.644;8.494;2023-02-10T12:03:23;102417.53;;;9.40;59.04
16355;BME280;8287;51.644;8.494;2023-02-10T12:05:57;102406.75;;;9.47;59.60
16355;BME280;8287;51.644;8.494;2023-02-10T12:08:37;102406.41;;;9.38;59.15
16355;BME280;8287;51.644;8.494;2023-02-10T12:11:11;102404.06;;;9.42;58.61
16355;BME280;8287;51.644;8.494;2023-02-10T12:13:47;102402.94;;;9.59;58.69
16355;BME280;8287;51.644;8.494;2023-02-10T12:16:20;102412.50;;;9.60;59.30
16355;BME280;8287;51.644;8.494;2023-02-10T12:18:57;102411.69;;;9.60;57.87
16355;BME280;8287;51.644;8.494;2023-02-10T12:21:55;102403.81;;;9.65;57.90
16355;BME280;8287;51.644;8.494;2023-02-10T12:25:03;102399.81;;;9.83;58.43
16355;BME280;8287;51.644;8.494;2023-02-10T12:27:49;102399.94;;;10.20;57.54
16355;BME280;8287;51.644;8.494;2023-02-10T12:30:28;102383.25;;;10.19;57.83
16355;BME280;8287;51.644;8.494;2023-02-10T12:33:08;102392.03;;;10.25;55.71
16355;BME280;8287;51.644;8.494;2023-02-10T12:35:44;102388.53;;;10.19;56.58
16355;BME280;8287;51.644;8.494;2023-02-10T12:38:25;102382.84;;;10.06;55.98
16355;BME280;8287;51.644;8.494;2023-02-10T12:41:01;102379.84;;;9.97;56.00
16355;BME280;8287;51.644;8.494;2023-02-10T12:43:42;102374.66;;;10.07;55.14
16355;BME280;8287;51.644;8.494;2023-02-10T12:46:24;102371.66;;;10.25;55.45
16355;BME280;8287;51.644;8.494;2023-02-10T12:49:06;102365.44;;;10.15;55.14
16355;BME280;8287;51.644;8.494;2023-02-10T12:51:48;102364.66;;;9.93;56.23
16355;BME280;8287;51.644;8.494;2023-02-10T12:54:19;102372.22;;;9.79;55.15
16355;BME280;8287;51.644;8.494;2023-02-10T12:56:51;102362.25;;;9.65;55.91
16355;BME280;8287;51.644;8.494;2023-02-10T12:59:23;102361.66;;;9.58;56.69
16355;BME280;8287;51.644;8.494;2023-02-10T13:01:55;102340.53;;;9.63;56.38
16355;BME280;8287;51.644;8.494;2023-02-10T13:04:26;102350.31;;;9.63;56.71
16355;BME280;8287;51.644;8.494;2023-02-10T13:06:57;102357.47;;;9.62;56.70
16355;BME280;8287;51.644;8.494;2023-02-10T13:09:28;102355.47;;;9.48;57.45
16355;BME280;8287;51.644;8.494;2023-02-10T13:12:05;102365.63;;;9.56;57.78
16355;BME280;8287;51.644;8.494;2023-02-10T13:14:37;102349.63;;;9.72;57.12
16355;BME280;8287;51.644;8.494;2023-02-10T13:17:08;102351.63;;;9.86;56.84
16355;BME280;8287;51.644;8.494;2023-02-10T13:19:41;102341.00;;;10.03;56.65
16355;BME280;8287;51.644;8.494;2023-02-10T13:22:16;102351.69;;;10.18;56.43
16355;BME280;8287;51.644;8.494;2023-02-10T13:24:50;102339.25;;;10.18;57.13
16355;BME280;8287;51.644;8.494;2023-02-10T13:27:31;102338.63;;;10.38;56.12
16355;BME280;8287;51.644;8.494;2023-02-10T13:30:13;102335.38;;;10.31;55.75